WZZ29 LEIB-LPPT
Flight info
| Callsign | WZZ29 |
|---|---|
| Flight time | N/A |
| Altitude | 13000 |
| Route | XOSTA M134 VLC N733 CJN/N0459F350 DCT PALIO DCT AKOKI DCT GOTOR DCT TLD DCT NATPA DCT MELON DCT CCS DCT ELVAR DCT UPULO UPULO2A/02 |
| Aircraft | A320/M-SDE3FGHIRWY/LB1 |
Departure
| Time | N/A |
|---|---|
| Airport | Ibiza Airport (LEIB) |
Arrival
| Time | 2026-05-03 20:33 |
|---|---|
| Airport | Lisbon Humberto Delgado Airport (LPPT) |
| Time | Latitude | Longitude | Altitude | Speed | Heading |
|---|---|---|---|---|---|
| 2026-05-03 20:15 | 38.79360 | -9.12820 | 1062 ft | 195 kts | 21° |
| 2026-05-03 20:15 | 38.80601 | -9.12103 | 1887 ft | 199 kts | 20° |
| 2026-05-03 20:15 | 38.81874 | -9.11379 | 2394 ft | 201 kts | 20° |
| 2026-05-03 20:15 | 38.83174 | -9.10677 | 2838 ft | 204 kts | 17° |
| 2026-05-03 20:16 | 38.84550 | -9.10347 | 3262 ft | 203 kts | 350° |
| 2026-05-03 20:16 | 38.85802 | -9.11098 | 3702 ft | 203 kts | 315° |
| 2026-05-03 20:16 | 38.86477 | -9.12681 | 4014 ft | 208 kts | 282° |
| 2026-05-03 20:16 | 38.86318 | -9.14513 | 4030 ft | 212 kts | 247° |
| 2026-05-03 20:17 | 38.85448 | -9.16048 | 4040 ft | 215 kts | 231° |
| 2026-05-03 20:17 | 38.84419 | -9.17447 | 4036 ft | 216 kts | 229° |
| 2026-05-03 20:17 | 38.83376 | -9.18831 | 4036 ft | 216 kts | 229° |
| 2026-05-03 20:17 | 38.82325 | -9.20209 | 4033 ft | 215 kts | 228° |
| 2026-05-03 20:18 | 38.81283 | -9.21590 | 4037 ft | 216 kts | 229° |
| 2026-05-03 20:18 | 38.80227 | -9.22972 | 4037 ft | 217 kts | 229° |
| 2026-05-03 20:18 | 38.79178 | -9.24351 | 4049 ft | 216 kts | 229° |
| 2026-05-03 20:18 | 38.78129 | -9.25721 | 4052 ft | 214 kts | 229° |
| 2026-05-03 20:19 | 38.77080 | -9.27082 | 4035 ft | 215 kts | 229° |
| 2026-05-03 20:19 | 38.76030 | -9.28445 | 4035 ft | 215 kts | 229° |
| 2026-05-03 20:19 | 38.74979 | -9.29807 | 4030 ft | 215 kts | 229° |
| 2026-05-03 20:19 | 38.73925 | -9.31168 | 4034 ft | 215 kts | 229° |
| 2026-05-03 20:20 | 38.72869 | -9.32531 | 4033 ft | 215 kts | 229° |
| 2026-05-03 20:20 | 38.71814 | -9.33887 | 4038 ft | 215 kts | 229° |
| 2026-05-03 20:20 | 38.70761 | -9.35252 | 4040 ft | 215 kts | 229° |
| 2026-05-03 20:20 | 38.69711 | -9.36617 | 4034 ft | 215 kts | 229° |
| 2026-05-03 20:21 | 38.68660 | -9.37981 | 4052 ft | 215 kts | 229° |
| 2026-05-03 20:21 | 38.67606 | -9.39344 | 4053 ft | 215 kts | 229° |
| 2026-05-03 20:21 | 38.66547 | -9.40703 | 4051 ft | 217 kts | 226° |
| 2026-05-03 20:21 | 38.65213 | -9.41604 | 4051 ft | 224 kts | 193° |
| 2026-05-03 20:22 | 38.63645 | -9.41676 | 4054 ft | 227 kts | 181° |
| 2026-05-03 20:22 | 38.62069 | -9.41569 | 4055 ft | 227 kts | 179° |
| 2026-05-03 20:22 | 38.60495 | -9.41438 | 4052 ft | 227 kts | 179° |
| 2026-05-03 20:22 | 38.58924 | -9.41307 | 4055 ft | 226 kts | 179° |
| 2026-05-03 20:23 | 38.57354 | -9.41182 | 4060 ft | 226 kts | 179° |
| 2026-05-03 20:23 | 38.55788 | -9.41053 | 4055 ft | 226 kts | 179° |
| 2026-05-03 20:23 | 38.54217 | -9.40929 | 4058 ft | 226 kts | 179° |
| 2026-05-03 20:23 | 38.52642 | -9.40800 | 4058 ft | 227 kts | 179° |
| 2026-05-03 20:24 | 38.51064 | -9.40670 | 4045 ft | 227 kts | 179° |
| 2026-05-03 20:24 | 38.49488 | -9.40540 | 4049 ft | 228 kts | 179° |
| 2026-05-03 20:24 | 38.47971 | -9.39954 | 4055 ft | 233 kts | 148° |
| 2026-05-03 20:24 | 38.46909 | -9.38414 | 4051 ft | 235 kts | 113° |
| 2026-05-03 20:25 | 38.46661 | -9.36424 | 4054 ft | 220 kts | 78° |
| 2026-05-03 20:25 | 38.47216 | -9.34734 | 4048 ft | 206 kts | 52° |
| 2026-05-03 20:25 | 38.48034 | -9.33244 | 4048 ft | 205 kts | 49° |
| 2026-05-03 20:25 | 38.48891 | -9.31764 | 4052 ft | 204 kts | 49° |
| 2026-05-03 20:26 | 38.49735 | -9.30331 | 4051 ft | 205 kts | 50° |
| 2026-05-03 20:26 | 38.50595 | -9.28879 | 4053 ft | 205 kts | 48° |
| 2026-05-03 20:26 | 38.51642 | -9.27713 | 4055 ft | 198 kts | 21° |
| 2026-05-03 20:26 | 38.52901 | -9.27027 | 4056 ft | 197 kts | 18° |
| 2026-05-03 20:27 | 38.54167 | -9.26360 | 4059 ft | 197 kts | 18° |
| 2026-05-03 20:27 | 38.55432 | -9.25690 | 4059 ft | 197 kts | 19° |
| 2026-05-03 20:27 | 38.56695 | -9.25019 | 4057 ft | 196 kts | 18° |
| 2026-05-03 20:27 | 38.57955 | -9.24350 | 4058 ft | 196 kts | 19° |
| 2026-05-03 20:28 | 38.59220 | -9.23678 | 4004 ft | 198 kts | 18° |
| 2026-05-03 20:28 | 38.60483 | -9.23006 | 3780 ft | 196 kts | 18° |
| 2026-05-03 20:28 | 38.61732 | -9.22342 | 3525 ft | 193 kts | 18° |
| 2026-05-03 20:28 | 38.62931 | -9.21701 | 3287 ft | 181 kts | 18° |
| 2026-05-03 20:29 | 38.64059 | -9.21100 | 3047 ft | 170 kts | 19° |
| 2026-05-03 20:29 | 38.65115 | -9.20538 | 2821 ft | 159 kts | 18° |
| 2026-05-03 20:29 | 38.66108 | -9.20009 | 2610 ft | 150 kts | 17° |
| 2026-05-03 20:29 | 38.67044 | -9.19510 | 2411 ft | 142 kts | 18° |
| 2026-05-03 20:30 | 38.67950 | -9.19029 | 2215 ft | 140 kts | 17° |
| 2026-05-03 20:30 | 38.68835 | -9.18558 | 2028 ft | 138 kts | 18° |
| 2026-05-03 20:30 | 38.69709 | -9.18092 | 1857 ft | 133 kts | 18° |
| 2026-05-03 20:30 | 38.70565 | -9.17635 | 1672 ft | 133 kts | 17° |
| 2026-05-03 20:31 | 38.71426 | -9.17176 | 1475 ft | 134 kts | 17° |
| 2026-05-03 20:31 | 38.72284 | -9.16719 | 1295 ft | 133 kts | 18° |
| 2026-05-03 20:31 | 38.73132 | -9.16266 | 1115 ft | 131 kts | 18° |
| 2026-05-03 20:31 | 38.73982 | -9.15813 | 942 ft | 133 kts | 18° |
| 2026-05-03 20:32 | 38.74849 | -9.15333 | 726 ft | 137 kts | 19° |
| 2026-05-03 20:32 | 38.75741 | -9.14873 | 612 ft | 140 kts | 18° |
| 2026-05-03 20:32 | 38.76646 | -9.14390 | 413 ft | 139 kts | 16° |
| 2026-05-03 20:32 | 38.77502 | -9.13939 | 365 ft | 116 kts | 20° |
| 2026-05-03 20:33 | 38.78039 | -9.13648 | 366 ft | 60 kts | 23° |
| 2026-05-03 20:33 | 38.78303 | -9.13455 | 364 ft | 29 kts | 46° |
| 2026-05-03 20:33 | 38.78379 | -9.13337 | 362 ft | 9 kts | 50° |
| 2026-05-03 20:33 | 38.78380 | -9.13335 | 362 ft | 0 kts | 51° |
| 2026-05-03 20:34 | 38.78381 | -9.13329 | 362 ft | 2 kts | 72° |
| 2026-05-03 20:35 | 38.78374 | -9.13304 | 362 ft | 5 kts | 108° |
| 2026-05-03 20:35 | 38.78336 | -9.13267 | 360 ft | 10 kts | 175° |
| 2026-05-03 20:35 | 38.78260 | -9.13296 | 360 ft | 13 kts | 202° |
| 2026-05-03 20:35 | 38.78166 | -9.13344 | 362 ft | 16 kts | 202° |
| 2026-05-03 20:36 | 38.78058 | -9.13405 | 359 ft | 18 kts | 199° |
| 2026-05-03 20:36 | 38.77929 | -9.13471 | 356 ft | 21 kts | 203° |
| 2026-05-03 20:36 | 38.77780 | -9.13551 | 358 ft | 24 kts | 202° |
| 2026-05-03 20:36 | 38.77646 | -9.13594 | 354 ft | 19 kts | 172° |
| 2026-05-03 20:37 | 38.77496 | -9.13554 | 351 ft | 24 kts | 167° |
| 2026-05-03 20:37 | 38.77320 | -9.13508 | 347 ft | 27 kts | 168° |
| 2026-05-03 20:37 | 38.77134 | -9.13455 | 349 ft | 26 kts | 167° |
| 2026-05-03 20:37 | 38.76958 | -9.13407 | 348 ft | 27 kts | 169° |
| 2026-05-03 20:38 | 38.76790 | -9.13367 | 343 ft | 17 kts | 173° |
| 2026-05-03 20:38 | 38.76717 | -9.13407 | 349 ft | 18 kts | 212° |
| 2026-05-03 20:38 | 38.76653 | -9.13492 | 352 ft | 13 kts | 251° |
| 2026-05-03 20:38 | 38.76633 | -9.13613 | 345 ft | 12 kts | 258° |
| 2026-05-03 20:39 | 38.76602 | -9.13662 | 349 ft | 7 kts | 193° |
| 2026-05-03 20:39 | 38.76590 | -9.13663 | 347 ft | 0 kts | 182° |
| 2026-05-03 20:39 | 38.76584 | -9.13662 | 347 ft | 1 kts | 179° |
| 2026-05-03 20:40 | 38.76561 | -9.13660 | 350 ft | 5 kts | 173° |
| 2026-05-03 20:40 | 38.76516 | -9.13649 | 350 ft | 8 kts | 168° |
| 2026-05-03 20:40 | 38.76474 | -9.13638 | 351 ft | 1 kts | 169° |
| 2026-05-03 20:40 | 38.76472 | -9.13638 | 352 ft | 0 kts | 169° |